sensor_id;sensor_type;location;lat;lon;timestamp;P1;durP1;ratioP1;P2;durP2;ratioP2
5867;SDS011;2960;49.142;7.768;2022-08-11T00:02:24;11.70;;;4.67;;
5867;SDS011;2960;49.142;7.768;2022-08-11T00:04:56;12.70;;;4.70;;
5867;SDS011;2960;49.142;7.768;2022-08-11T00:07:32;11.33;;;4.40;;
5867;SDS011;2960;49.142;7.768;2022-08-11T00:10:08;11.80;;;4.60;;
5867;SDS011;2960;49.142;7.768;2022-08-11T00:12:38;11.63;;;4.73;;
5867;SDS011;2960;49.142;7.768;2022-08-11T00:15:09;11.80;;;5.03;;
5867;SDS011;2960;49.142;7.768;2022-08-11T00:17:37;11.60;;;4.57;;
5867;SDS011;2960;49.142;7.768;2022-08-11T00:20:06;11.80;;;4.73;;
5867;SDS011;2960;49.142;7.768;2022-08-11T00:22:37;12.17;;;4.90;;
5867;SDS011;2960;49.142;7.768;2022-08-11T00:25:08;11.20;;;4.47;;
5867;SDS011;2960;49.142;7.768;2022-08-11T00:27:37;11.90;;;4.63;;
5867;SDS011;2960;49.142;7.768;2022-08-11T00:30:07;11.93;;;4.80;;
5867;SDS011;2960;49.142;7.768;2022-08-11T00:32:40;12.60;;;4.60;;
5867;SDS011;2960;49.142;7.768;2022-08-11T00:35:11;12.30;;;5.00;;
5867;SDS011;2960;49.142;7.768;2022-08-11T00:37:43;12.10;;;4.90;;
5867;SDS011;2960;49.142;7.768;2022-08-11T00:40:16;11.80;;;4.67;;
5867;SDS011;2960;49.142;7.768;2022-08-11T00:42:54;11.93;;;4.73;;
5867;SDS011;2960;49.142;7.768;2022-08-11T00:45:34;11.67;;;4.57;;
5867;SDS011;2960;49.142;7.768;2022-08-11T00:48:10;12.23;;;4.90;;
5867;SDS011;2960;49.142;7.768;2022-08-11T00:51:00;11.67;;;4.53;;
5867;SDS011;2960;49.142;7.768;2022-08-11T00:53:38;11.47;;;4.67;;
5867;SDS011;2960;49.142;7.768;2022-08-11T00:59:26;12.90;;;5.30;;
5867;SDS011;2960;49.142;7.768;2022-08-11T01:05:47;11.97;;;5.03;;
5867;SDS011;2960;49.142;7.768;2022-08-11T01:11:55;11.63;;;4.57;;
5867;SDS011;2960;49.142;7.768;2022-08-11T01:18:28;12.17;;;5.00;;
5867;SDS011;2960;49.142;7.768;2022-08-11T01:28:13;13.70;;;5.10;;
5867;SDS011;2960;49.142;7.768;2022-08-11T01:34:49;15.63;;;6.73;;
5867;SDS011;2960;49.142;7.768;2022-08-11T01:41:30;14.23;;;5.50;;
5867;SDS011;2960;49.142;7.768;2022-08-11T01:47:32;12.33;;;5.20;;
5867;SDS011;2960;49.142;7.768;2022-08-11T01:50:21;12.40;;;5.07;;
5867;SDS011;2960;49.142;7.768;2022-08-11T01:53:03;13.83;;;5.47;;
5867;SDS011;2960;49.142;7.768;2022-08-11T01:55:46;12.77;;;5.03;;
5867;SDS011;2960;49.142;7.768;2022-08-11T01:58:25;11.90;;;5.00;;
5867;SDS011;2960;49.142;7.768;2022-08-11T02:01:10;12.30;;;5.27;;
5867;SDS011;2960;49.142;7.768;2022-08-11T02:03:56;12.00;;;4.80;;
5867;SDS011;2960;49.142;7.768;2022-08-11T02:06:37;12.37;;;4.97;;
5867;SDS011;2960;49.142;7.768;2022-08-11T02:09:24;13.60;;;4.70;;
5867;SDS011;2960;49.142;7.768;2022-08-11T02:12:09;12.03;;;4.70;;
5867;SDS011;2960;49.142;7.768;2022-08-11T02:14:55;11.90;;;4.70;;
5867;SDS011;2960;49.142;7.768;2022-08-11T02:17:36;11.90;;;4.70;;
5867;SDS011;2960;49.142;7.768;2022-08-11T02:20:17;13.17;;;5.20;;
5867;SDS011;2960;49.142;7.768;2022-08-11T02:23:12;11.40;;;4.63;;
5867;SDS011;2960;49.142;7.768;2022-08-11T02:26:06;12.03;;;5.10;;
5867;SDS011;2960;49.142;7.768;2022-08-11T02:28:41;12.67;;;5.40;;
5867;SDS011;2960;49.142;7.768;2022-08-11T02:31:26;12.07;;;4.93;;
5867;SDS011;2960;49.142;7.768;2022-08-11T02:34:27;12.47;;;4.97;;
5867;SDS011;2960;49.142;7.768;2022-08-11T02:37:09;12.60;;;4.90;;
5867;SDS011;2960;49.142;7.768;2022-08-11T02:39:48;12.30;;;4.80;;
5867;SDS011;2960;49.142;7.768;2022-08-11T02:42:28;12.10;;;5.00;;
5867;SDS011;2960;49.142;7.768;2022-08-11T02:45:05;12.00;;;4.80;;
5867;SDS011;2960;49.142;7.768;2022-08-11T02:47:57;12.23;;;5.13;;
5867;SDS011;2960;49.142;7.768;2022-08-11T02:50:50;11.20;;;4.40;;
5867;SDS011;2960;49.142;7.768;2022-08-11T02:53:31;11.80;;;4.90;;
5867;SDS011;2960;49.142;7.768;2022-08-11T02:56:09;11.70;;;4.70;;
5867;SDS011;2960;49.142;7.768;2022-08-11T02:58:47;11.90;;;4.70;;
5867;SDS011;2960;49.142;7.768;2022-08-11T03:01:39;13.00;;;5.20;;
5867;SDS011;2960;49.142;7.768;2022-08-11T03:04:13;12.10;;;4.60;;
5867;SDS011;2960;49.142;7.768;2022-08-11T03:06:49;11.70;;;4.77;;
5867;SDS011;2960;49.142;7.768;2022-08-11T03:09:26;12.20;;;5.07;;
5867;SDS011;2960;49.142;7.768;2022-08-11T03:12:12;12.03;;;4.90;;
5867;SDS011;2960;49.142;7.768;2022-08-11T03:15:06;11.77;;;4.83;;
5867;SDS011;2960;49.142;7.768;2022-08-11T03:18:00;11.90;;;4.77;;
5867;SDS011;2960;49.142;7.768;2022-08-11T03:20:41;11.57;;;4.60;;
5867;SDS011;2960;49.142;7.768;2022-08-11T03:23:17;12.60;;;4.70;;
5867;SDS011;2960;49.142;7.768;2022-08-11T03:26:09;11.40;;;4.50;;
5867;SDS011;2960;49.142;7.768;2022-08-11T03:29:00;11.93;;;4.47;;
5867;SDS011;2960;49.142;7.768;2022-08-11T03:31:34;11.33;;;4.60;;
5867;SDS011;2960;49.142;7.768;2022-08-11T03:34:08;11.33;;;4.80;;
5867;SDS011;2960;49.142;7.768;2022-08-11T03:40:32;11.40;;;4.60;;
5867;SDS011;2960;49.142;7.768;2022-08-11T03:43:44;11.50;;;4.50;;
5867;SDS011;2960;49.142;7.768;2022-08-11T03:46:25;11.60;;;4.40;;
5867;SDS011;2960;49.142;7.768;2022-08-11T03:49:05;11.97;;;5.07;;
5867;SDS011;2960;49.142;7.768;2022-08-11T03:51:49;11.70;;;4.50;;
5867;SDS011;2960;49.142;7.768;2022-08-11T03:54:26;10.80;;;3.90;;
5867;SDS011;2960;49.142;7.768;2022-08-11T03:57:19;12.20;;;4.60;;
5867;SDS011;2960;49.142;7.768;2022-08-11T04:04:15;11.33;;;4.20;;
5867;SDS011;2960;49.142;7.768;2022-08-11T04:10:56;11.70;;;4.10;;
5867;SDS011;2960;49.142;7.768;2022-08-11T04:27:03;11.73;;;3.93;;
5867;SDS011;2960;49.142;7.768;2022-08-11T04:30:03;11.60;;;4.20;;
5867;SDS011;2960;49.142;7.768;2022-08-11T04:32:52;11.03;;;3.73;;
5867;SDS011;2960;49.142;7.768;2022-08-11T04:36:06;11.10;;;4.33;;
5867;SDS011;2960;49.142;7.768;2022-08-11T04:39:15;11.87;;;4.17;;
5867;SDS011;2960;49.142;7.768;2022-08-11T04:42:07;11.20;;;4.30;;
5867;SDS011;2960;49.142;7.768;2022-08-11T04:45:39;11.43;;;4.23;;
5867;SDS011;2960;49.142;7.768;2022-08-11T04:48:57;11.37;;;4.30;;
5867;SDS011;2960;49.142;7.768;2022-08-11T04:55:42;11.20;;;4.00;;
5867;SDS011;2960;49.142;7.768;2022-08-11T04:58:48;11.33;;;4.40;;
5867;SDS011;2960;49.142;7.768;2022-08-11T05:02:14;11.20;;;4.60;;
5867;SDS011;2960;49.142;7.768;2022-08-11T05:05:52;10.90;;;4.20;;
5867;SDS011;2960;49.142;7.768;2022-08-11T05:09:13;11.63;;;4.37;;
5867;SDS011;2960;49.142;7.768;2022-08-11T05:12:01;12.87;;;4.20;;
5867;SDS011;2960;49.142;7.768;2022-08-11T05:14:56;11.80;;;4.53;;
5867;SDS011;2960;49.142;7.768;2022-08-11T05:17:43;11.50;;;4.07;;
5867;SDS011;2960;49.142;7.768;2022-08-11T05:20:40;10.70;;;3.93;;
5867;SDS011;2960;49.142;7.768;2022-08-11T05:23:31;12.03;;;4.20;;
5867;SDS011;2960;49.142;7.768;2022-08-11T05:26:20;11.50;;;4.60;;
5867;SDS011;2960;49.142;7.768;2022-08-11T05:29:22;11.43;;;4.27;;
5867;SDS011;2960;49.142;7.768;2022-08-11T05:32:19;11.30;;;4.50;;
5867;SDS011;2960;49.142;7.768;2022-08-11T05:35:07;11.60;;;4.60;;
5867;SDS011;2960;49.142;7.768;2022-08-11T05:37:37;12.00;;;4.93;;
5867;SDS011;2960;49.142;7.768;2022-08-11T05:40:26;11.27;;;4.13;;
5867;SDS011;2960;49.142;7.768;2022-08-11T05:43:13;12.90;;;4.57;;
5867;SDS011;2960;49.142;7.768;2022-08-11T05:45:59;11.30;;;4.60;;
5867;SDS011;2960;49.142;7.768;2022-08-11T05:48:46;12.00;;;4.30;;
5867;SDS011;2960;49.142;7.768;2022-08-11T05:51:33;11.07;;;4.10;;
5867;SDS011;2960;49.142;7.768;2022-08-11T05:54:19;12.60;;;4.70;;
5867;SDS011;2960;49.142;7.768;2022-08-11T05:57:04;11.20;;;4.17;;
5867;SDS011;2960;49.142;7.768;2022-08-11T05:59:34;10.87;;;3.83;;
5867;SDS011;2960;49.142;7.768;2022-08-11T06:02:03;11.30;;;4.07;;
5867;SDS011;2960;49.142;7.768;2022-08-11T06:04:32;11.20;;;4.00;;
5867;SDS011;2960;49.142;7.768;2022-08-11T06:07:02;11.37;;;4.30;;
5867;SDS011;2960;49.142;7.768;2022-08-11T06:09:33;11.70;;;4.10;;
5867;SDS011;2960;49.142;7.768;2022-08-11T06:12:04;11.60;;;4.00;;
5867;SDS011;2960;49.142;7.768;2022-08-11T06:14:41;11.67;;;4.20;;
5867;SDS011;2960;49.142;7.768;2022-08-11T06:17:10;11.00;;;3.93;;
5867;SDS011;2960;49.142;7.768;2022-08-11T06:19:39;11.63;;;4.10;;
5867;SDS011;2960;49.142;7.768;2022-08-11T06:22:08;11.70;;;4.23;;
5867;SDS011;2960;49.142;7.768;2022-08-11T06:24:39;11.60;;;4.27;;
5867;SDS011;2960;49.142;7.768;2022-08-11T06:27:10;11.17;;;3.90;;
5867;SDS011;2960;49.142;7.768;2022-08-11T06:29:48;11.27;;;4.20;;
5867;SDS011;2960;49.142;7.768;2022-08-11T06:32:18;11.43;;;4.20;;
5867;SDS011;2960;49.142;7.768;2022-08-11T06:35:03;12.30;;;4.30;;
5867;SDS011;2960;49.142;7.768;2022-08-11T06:38:07;12.07;;;4.70;;
5867;SDS011;2960;49.142;7.768;2022-08-11T06:40:41;13.30;;;4.10;;
5867;SDS011;2960;49.142;7.768;2022-08-11T06:43:43;11.40;;;4.47;;
5867;SDS011;2960;49.142;7.768;2022-08-11T06:46:17;11.30;;;4.30;;
5867;SDS011;2960;49.142;7.768;2022-08-11T06:48:52;11.83;;;4.27;;
5867;SDS011;2960;49.142;7.768;2022-08-11T06:51:20;12.10;;;4.87;;
5867;SDS011;2960;49.142;7.768;2022-08-11T06:53:48;11.90;;;4.70;;
5867;SDS011;2960;49.142;7.768;2022-08-11T06:56:21;12.70;;;5.20;;
5867;SDS011;2960;49.142;7.768;2022-08-11T06:59:08;11.90;;;4.70;;
5867;SDS011;2960;49.142;7.768;2022-08-11T07:01:59;12.63;;;5.10;;
5867;SDS011;2960;49.142;7.768;2022-08-11T07:04:35;13.20;;;5.27;;
5867;SDS011;2960;49.142;7.768;2022-08-11T07:07:13;12.70;;;5.17;;
5867;SDS011;2960;49.142;7.768;2022-08-11T07:10:45;13.53;;;4.83;;
5867;SDS011;2960;49.142;7.768;2022-08-11T07:13:43;14.60;;;5.20;;
5867;SDS011;2960;49.142;7.768;2022-08-11T07:16:30;11.70;;;4.67;;
5867;SDS011;2960;49.142;7.768;2022-08-11T07:19:02;13.03;;;4.60;;
5867;SDS011;2960;49.142;7.768;2022-08-11T07:21:50;13.60;;;4.70;;
5867;SDS011;2960;49.142;7.768;2022-08-11T07:24:36;11.90;;;4.20;;
5867;SDS011;2960;49.142;7.768;2022-08-11T07:27:26;11.37;;;4.17;;
5867;SDS011;2960;49.142;7.768;2022-08-11T07:30:15;12.80;;;4.87;;
5867;SDS011;2960;49.142;7.768;2022-08-11T07:32:44;11.93;;;4.80;;
5867;SDS011;2960;49.142;7.768;2022-08-11T07:35:19;18.00;;;4.73;;
5867;SDS011;2960;49.142;7.768;2022-08-11T07:37:52;12.30;;;4.60;;
5867;SDS011;2960;49.142;7.768;2022-08-11T07:40:24;11.40;;;4.13;;
5867;SDS011;2960;49.142;7.768;2022-08-11T07:42:52;11.50;;;4.30;;
5867;SDS011;2960;49.142;7.768;2022-08-11T07:45:22;11.70;;;4.33;;
5867;SDS011;2960;49.142;7.768;2022-08-11T07:48:08;13.03;;;4.50;;
5867;SDS011;2960;49.142;7.768;2022-08-11T07:50:54;11.20;;;4.37;;
5867;SDS011;2960;49.142;7.768;2022-08-11T07:53:40;11.70;;;4.50;;
5867;SDS011;2960;49.142;7.768;2022-08-11T07:56:08;11.60;;;4.20;;
5867;SDS011;2960;49.142;7.768;2022-08-11T07:58:40;10.87;;;4.13;;
5867;SDS011;2960;49.142;7.768;2022-08-11T08:01:26;12.07;;;4.77;;
5867;SDS011;2960;49.142;7.768;2022-08-11T08:04:14;11.40;;;4.53;;
5867;SDS011;2960;49.142;7.768;2022-08-11T08:07:03;11.10;;;4.37;;
5867;SDS011;2960;49.142;7.768;2022-08-11T08:09:49;11.10;;;4.03;;
5867;SDS011;2960;49.142;7.768;2022-08-11T08:12:34;11.30;;;4.30;;
5867;SDS011;2960;49.142;7.768;2022-08-11T08:15:20;11.20;;;4.10;;
5867;SDS011;2960;49.142;7.768;2022-08-11T08:18:05;11.30;;;4.30;;
5867;SDS011;2960;49.142;7.768;2022-08-11T08:20:34;11.60;;;4.07;;
5867;SDS011;2960;49.142;7.768;2022-08-11T08:23:05;12.30;;;4.07;;
5867;SDS011;2960;49.142;7.768;2022-08-11T08:25:34;15.10;;;3.80;;
5867;SDS011;2960;49.142;7.768;2022-08-11T08:28:05;11.10;;;4.00;;
5867;SDS011;2960;49.142;7.768;2022-08-11T08:30:35;12.03;;;4.20;;
5867;SDS011;2960;49.142;7.768;2022-08-11T08:33:17;10.93;;;3.90;;
5867;SDS011;2960;49.142;7.768;2022-08-11T08:35:47;11.27;;;3.90;;
5867;SDS011;2960;49.142;7.768;2022-08-11T08:38:36;11.30;;;4.10;;
5867;SDS011;2960;49.142;7.768;2022-08-11T08:41:05;11.43;;;3.87;;
5867;SDS011;2960;49.142;7.768;2022-08-11T08:43:35;11.10;;;3.90;;
5867;SDS011;2960;49.142;7.768;2022-08-11T08:46:04;11.10;;;3.90;;
5867;SDS011;2960;49.142;7.768;2022-08-11T08:48:35;10.80;;;3.73;;
5867;SDS011;2960;49.142;7.768;2022-08-11T08:51:04;12.93;;;4.07;;
5867;SDS011;2960;49.142;7.768;2022-08-11T08:53:58;11.30;;;3.80;;
5867;SDS011;2960;49.142;7.768;2022-08-11T08:56:33;10.83;;;3.90;;
5867;SDS011;2960;49.142;7.768;2022-08-11T08:59:04;11.13;;;4.00;;
5867;SDS011;2960;49.142;7.768;2022-08-11T09:01:35;10.87;;;3.70;;
5867;SDS011;2960;49.142;7.768;2022-08-11T09:04:08;11.10;;;3.83;;
5867;SDS011;2960;49.142;7.768;2022-08-11T09:06:36;11.07;;;3.80;;
5867;SDS011;2960;49.142;7.768;2022-08-11T09:09:08;11.40;;;3.60;;
5867;SDS011;2960;49.142;7.768;2022-08-11T09:11:37;10.87;;;3.77;;
5867;SDS011;2960;49.142;7.768;2022-08-11T09:14:19;11.00;;;3.57;;
5867;SDS011;2960;49.142;7.768;2022-08-11T09:16:49;10.90;;;3.87;;
5867;SDS011;2960;49.142;7.768;2022-08-11T09:19:18;10.70;;;3.47;;
5867;SDS011;2960;49.142;7.768;2022-08-11T09:21:47;10.80;;;3.73;;
5867;SDS011;2960;49.142;7.768;2022-08-11T09:24:38;11.03;;;3.87;;
5867;SDS011;2960;49.142;7.768;2022-08-11T09:27:24;11.30;;;3.40;;
5867;SDS011;2960;49.142;7.768;2022-08-11T09:29:52;11.40;;;3.53;;
5867;SDS011;2960;49.142;7.768;2022-08-11T09:32:20;11.10;;;3.67;;
5867;SDS011;2960;49.142;7.768;2022-08-11T09:34:49;10.93;;;3.80;;
5867;SDS011;2960;49.142;7.768;2022-08-11T09:37:17;10.83;;;3.90;;
5867;SDS011;2960;49.142;7.768;2022-08-11T09:40:06;10.97;;;3.70;;
5867;SDS011;2960;49.142;7.768;2022-08-11T09:42:54;10.70;;;4.00;;
5867;SDS011;2960;49.142;7.768;2022-08-11T09:45:42;10.60;;;3.50;;
5867;SDS011;2960;49.142;7.768;2022-08-11T09:48:15;10.87;;;3.57;;
5867;SDS011;2960;49.142;7.768;2022-08-11T09:50:44;10.50;;;3.50;;
5867;SDS011;2960;49.142;7.768;2022-08-11T09:53:14;10.43;;;3.40;;
5867;SDS011;2960;49.142;7.768;2022-08-11T09:55:43;11.20;;;3.50;;
5867;SDS011;2960;49.142;7.768;2022-08-11T09:58:12;11.60;;;3.73;;
5867;SDS011;2960;49.142;7.768;2022-08-11T10:00:40;11.00;;;3.63;;
5867;SDS011;2960;49.142;7.768;2022-08-11T10:03:12;11.10;;;3.43;;
5867;SDS011;2960;49.142;7.768;2022-08-11T10:05:43;10.43;;;3.60;;
5867;SDS011;2960;49.142;7.768;2022-08-11T10:08:31;11.10;;;3.70;;
5867;SDS011;2960;49.142;7.768;2022-08-11T10:11:02;10.60;;;3.80;;
5867;SDS011;2960;49.142;7.768;2022-08-11T10:13:32;10.17;;;3.40;;
5867;SDS011;2960;49.142;7.768;2022-08-11T10:16:20;10.77;;;3.70;;
5867;SDS011;2960;49.142;7.768;2022-08-11T10:18:49;10.60;;;3.47;;
5867;SDS011;2960;49.142;7.768;2022-08-11T10:21:22;10.30;;;3.60;;
5867;SDS011;2960;49.142;7.768;2022-08-11T10:27:13;10.07;;;3.30;;
5867;SDS011;2960;49.142;7.768;2022-08-11T10:29:41;10.70;;;3.73;;
5867;SDS011;2960;49.142;7.768;2022-08-11T10:32:26;10.80;;;3.90;;
5867;SDS011;2960;49.142;7.768;2022-08-11T10:35:13;10.50;;;3.47;;
5867;SDS011;2960;49.142;7.768;2022-08-11T10:37:51;11.80;;;3.37;;
5867;SDS011;2960;49.142;7.768;2022-08-11T10:40:19;10.70;;;3.60;;
5867;SDS011;2960;49.142;7.768;2022-08-11T10:42:50;10.20;;;3.40;;
5867;SDS011;2960;49.142;7.768;2022-08-11T10:45:32;10.30;;;3.40;;
5867;SDS011;2960;49.142;7.768;2022-08-11T10:48:20;10.30;;;3.40;;
5867;SDS011;2960;49.142;7.768;2022-08-11T10:50:50;10.40;;;3.10;;
5867;SDS011;2960;49.142;7.768;2022-08-11T10:53:37;10.50;;;3.30;;
5867;SDS011;2960;49.142;7.768;2022-08-11T10:56:26;10.47;;;3.37;;
5867;SDS011;2960;49.142;7.768;2022-08-11T10:59:15;9.87;;;3.13;;
5867;SDS011;2960;49.142;7.768;2022-08-11T11:01:43;10.43;;;3.33;;
5867;SDS011;2960;49.142;7.768;2022-08-11T11:04:11;10.30;;;3.43;;
5867;SDS011;2960;49.142;7.768;2022-08-11T11:06:45;10.20;;;3.30;;
5867;SDS011;2960;49.142;7.768;2022-08-11T11:09:21;10.50;;;3.40;;
5867;SDS011;2960;49.142;7.768;2022-08-11T11:11:58;10.53;;;3.30;;
5867;SDS011;2960;49.142;7.768;2022-08-11T11:14:48;10.17;;;3.10;;
5867;SDS011;2960;49.142;7.768;2022-08-11T11:17:36;9.80;;;3.03;;
5867;SDS011;2960;49.142;7.768;2022-08-11T11:20:26;10.40;;;3.40;;
5867;SDS011;2960;49.142;7.768;2022-08-11T11:22:58;10.97;;;3.63;;
5867;SDS011;2960;49.142;7.768;2022-08-11T11:32:26;10.27;;;3.40;;
5867;SDS011;2960;49.142;7.768;2022-08-11T11:35:20;11.67;;;3.00;;
5867;SDS011;2960;49.142;7.768;2022-08-11T11:38:01;9.73;;;2.83;;
5867;SDS011;2960;49.142;7.768;2022-08-11T11:40:33;10.27;;;3.20;;
5867;SDS011;2960;49.142;7.768;2022-08-11T11:43:02;10.70;;;3.60;;
5867;SDS011;2960;49.142;7.768;2022-08-11T11:45:31;10.10;;;3.20;;
5867;SDS011;2960;49.142;7.768;2022-08-11T11:47:59;10.30;;;3.07;;
5867;SDS011;2960;49.142;7.768;2022-08-11T11:50:27;10.13;;;3.00;;
5867;SDS011;2960;49.142;7.768;2022-08-11T11:52:59;11.87;;;3.50;;
5867;SDS011;2960;49.142;7.768;2022-08-11T11:55:31;10.57;;;3.03;;
5867;SDS011;2960;49.142;7.768;2022-08-11T11:57:59;9.83;;;3.10;;
5867;SDS011;2960;49.142;7.768;2022-08-11T12:00:47;10.40;;;2.87;;
5867;SDS011;2960;49.142;7.768;2022-08-11T12:03:34;10.40;;;3.23;;
5867;SDS011;2960;49.142;7.768;2022-08-11T12:06:02;9.77;;;2.70;;
5867;SDS011;2960;49.142;7.768;2022-08-11T12:08:30;9.83;;;3.20;;
5867;SDS011;2960;49.142;7.768;2022-08-11T12:10:58;10.63;;;3.20;;
5867;SDS011;2960;49.142;7.768;2022-08-11T12:13:46;10.70;;;2.80;;
5867;SDS011;2960;49.142;7.768;2022-08-11T12:16:18;10.20;;;2.97;;
5867;SDS011;2960;49.142;7.768;2022-08-11T12:18:48;9.90;;;2.97;;
5867;SDS011;2960;49.142;7.768;2022-08-11T12:21:20;9.80;;;2.73;;
5867;SDS011;2960;49.142;7.768;2022-08-11T12:23:49;9.70;;;2.80;;
5867;SDS011;2960;49.142;7.768;2022-08-11T12:26:35;9.77;;;2.93;;
5867;SDS011;2960;49.142;7.768;2022-08-11T12:29:21;10.00;;;3.00;;
5867;SDS011;2960;49.142;7.768;2022-08-11T12:31:52;9.97;;;2.90;;
5867;SDS011;2960;49.142;7.768;2022-08-11T12:34:25;9.80;;;3.10;;
5867;SDS011;2960;49.142;7.768;2022-08-11T12:36:55;9.97;;;2.80;;
5867;SDS011;2960;49.142;7.768;2022-08-11T12:39:25;10.90;;;2.90;;
5867;SDS011;2960;49.142;7.768;2022-08-11T12:42:16;9.83;;;3.10;;
5867;SDS011;2960;49.142;7.768;2022-08-11T12:45:02;9.97;;;3.03;;
5867;SDS011;2960;49.142;7.768;2022-08-11T12:48:02;10.00;;;3.10;;
5867;SDS011;2960;49.142;7.768;2022-08-11T12:50:51;10.30;;;3.70;;
5867;SDS011;2960;49.142;7.768;2022-08-11T12:53:44;10.03;;;3.20;;
5867;SDS011;2960;49.142;7.768;2022-08-11T12:56:19;10.27;;;3.77;;
5867;SDS011;2960;49.142;7.768;2022-08-11T12:59:06;10.60;;;3.40;;
5867;SDS011;2960;49.142;7.768;2022-08-11T13:01:52;10.27;;;3.67;;
5867;SDS011;2960;49.142;7.768;2022-08-11T13:04:38;10.40;;;3.60;;
5867;SDS011;2960;49.142;7.768;2022-08-11T13:07:20;10.33;;;3.70;;
5867;SDS011;2960;49.142;7.768;2022-08-11T13:09:47;10.60;;;3.70;;
5867;SDS011;2960;49.142;7.768;2022-08-11T13:12:15;9.90;;;3.47;;
5867;SDS011;2960;49.142;7.768;2022-08-11T13:15:00;9.93;;;3.60;;
5867;SDS011;2960;49.142;7.768;2022-08-11T13:17:29;10.27;;;3.50;;
5867;SDS011;2960;49.142;7.768;2022-08-11T13:19:59;10.43;;;3.57;;
5867;SDS011;2960;49.142;7.768;2022-08-11T13:22:29;9.70;;;3.00;;
5867;SDS011;2960;49.142;7.768;2022-08-11T13:24:56;10.23;;;3.37;;
5867;SDS011;2960;49.142;7.768;2022-08-11T13:27:24;10.23;;;3.30;;
5867;SDS011;2960;49.142;7.768;2022-08-11T13:29:52;9.87;;;3.20;;
5867;SDS011;2960;49.142;7.768;2022-08-11T13:32:41;9.90;;;3.23;;
5867;SDS011;2960;49.142;7.768;2022-08-11T13:35:12;10.13;;;3.20;;
5867;SDS011;2960;49.142;7.768;2022-08-11T13:37:40;10.00;;;3.00;;
5867;SDS011;2960;49.142;7.768;2022-08-11T13:40:10;10.03;;;3.30;;
5867;SDS011;2960;49.142;7.768;2022-08-11T13:42:39;10.10;;;3.63;;
5867;SDS011;2960;49.142;7.768;2022-08-11T13:45:07;11.07;;;3.40;;
5867;SDS011;2960;49.142;7.768;2022-08-11T13:47:35;11.03;;;3.70;;
5867;SDS011;2960;49.142;7.768;2022-08-11T13:50:04;10.20;;;3.70;;
5867;SDS011;2960;49.142;7.768;2022-08-11T13:52:34;10.30;;;3.20;;
5867;SDS011;2960;49.142;7.768;2022-08-11T13:55:04;9.67;;;2.90;;
5867;SDS011;2960;49.142;7.768;2022-08-11T13:57:33;10.07;;;3.30;;
5867;SDS011;2960;49.142;7.768;2022-08-11T14:00:03;10.60;;;3.60;;
5867;SDS011;2960;49.142;7.768;2022-08-11T14:02:35;10.10;;;3.20;;
5867;SDS011;2960;49.142;7.768;2022-08-11T14:05:09;10.97;;;3.40;;
5867;SDS011;2960;49.142;7.768;2022-08-11T14:07:43;10.00;;;3.27;;
5867;SDS011;2960;49.142;7.768;2022-08-11T14:10:15;10.07;;;3.40;;
5867;SDS011;2960;49.142;7.768;2022-08-11T14:12:46;9.90;;;3.17;;
5867;SDS011;2960;49.142;7.768;2022-08-11T14:15:40;10.10;;;3.57;;
5867;SDS011;2960;49.142;7.768;2022-08-11T14:18:12;10.00;;;3.27;;
5867;SDS011;2960;49.142;7.768;2022-08-11T14:20:43;10.40;;;3.40;;
5867;SDS011;2960;49.142;7.768;2022-08-11T14:23:40;9.93;;;3.23;;
5867;SDS011;2960;49.142;7.768;2022-08-11T14:26:10;10.03;;;3.20;;
5867;SDS011;2960;49.142;7.768;2022-08-11T14:28:52;9.90;;;3.13;;
5867;SDS011;2960;49.142;7.768;2022-08-11T14:31:23;9.90;;;3.50;;
5867;SDS011;2960;49.142;7.768;2022-08-11T14:33:54;10.40;;;3.67;;
5867;SDS011;2960;49.142;7.768;2022-08-11T14:36:25;10.80;;;3.73;;
5867;SDS011;2960;49.142;7.768;2022-08-11T14:38:59;10.60;;;3.80;;
5867;SDS011;2960;49.142;7.768;2022-08-11T14:41:29;11.73;;;3.40;;
5867;SDS011;2960;49.142;7.768;2022-08-11T14:44:15;10.20;;;3.30;;
5867;SDS011;2960;49.142;7.768;2022-08-11T14:47:00;11.50;;;3.67;;
5867;SDS011;2960;49.142;7.768;2022-08-11T14:49:33;10.30;;;3.37;;
5867;SDS011;2960;49.142;7.768;2022-08-11T14:52:03;10.27;;;3.53;;
5867;SDS011;2960;49.142;7.768;2022-08-11T14:54:35;10.23;;;3.60;;
5867;SDS011;2960;49.142;7.768;2022-08-11T14:57:20;11.13;;;4.13;;
5867;SDS011;2960;49.142;7.768;2022-08-11T14:59:49;10.50;;;3.67;;
5867;SDS011;2960;49.142;7.768;2022-08-11T15:02:18;10.50;;;3.70;;
5867;SDS011;2960;49.142;7.768;2022-08-11T15:05:03;9.87;;;3.43;;
5867;SDS011;2960;49.142;7.768;2022-08-11T15:07:32;10.20;;;3.40;;
5867;SDS011;2960;49.142;7.768;2022-08-11T15:10:02;11.00;;;3.90;;
5867;SDS011;2960;49.142;7.768;2022-08-11T15:12:32;11.00;;;3.77;;
5867;SDS011;2960;49.142;7.768;2022-08-11T15:15:02;11.00;;;4.00;;
5867;SDS011;2960;49.142;7.768;2022-08-11T15:17:50;10.40;;;3.67;;
5867;SDS011;2960;49.142;7.768;2022-08-11T15:20:20;10.30;;;3.80;;
5867;SDS011;2960;49.142;7.768;2022-08-11T15:23:07;10.53;;;3.80;;
5867;SDS011;2960;49.142;7.768;2022-08-11T15:25:54;10.20;;;3.60;;
5867;SDS011;2960;49.142;7.768;2022-08-11T15:28:25;11.50;;;3.80;;
5867;SDS011;2960;49.142;7.768;2022-08-11T15:31:14;10.60;;;3.60;;
5867;SDS011;2960;49.142;7.768;2022-08-11T15:34:01;10.50;;;3.60;;
5867;SDS011;2960;49.142;7.768;2022-08-11T15:36:48;10.77;;;3.80;;
5867;SDS011;2960;49.142;7.768;2022-08-11T15:39:40;10.30;;;4.00;;
5867;SDS011;2960;49.142;7.768;2022-08-11T15:42:29;10.80;;;3.77;;
5867;SDS011;2960;49.142;7.768;2022-08-11T15:45:12;10.60;;;3.37;;
5867;SDS011;2960;49.142;7.768;2022-08-11T15:48:02;10.30;;;3.70;;
5867;SDS011;2960;49.142;7.768;2022-08-11T15:50:42;10.50;;;3.30;;
5867;SDS011;2960;49.142;7.768;2022-08-11T15:53:17;10.50;;;3.60;;
5867;SDS011;2960;49.142;7.768;2022-08-11T15:55:51;11.13;;;4.03;;
5867;SDS011;2960;49.142;7.768;2022-08-11T15:58:21;10.60;;;3.77;;
5867;SDS011;2960;49.142;7.768;2022-08-11T16:01:09;10.43;;;3.80;;
5867;SDS011;2960;49.142;7.768;2022-08-11T16:03:59;10.80;;;3.90;;
5867;SDS011;2960;49.142;7.768;2022-08-11T16:06:39;10.50;;;3.63;;
5867;SDS011;2960;49.142;7.768;2022-08-11T16:09:11;10.80;;;3.77;;
5867;SDS011;2960;49.142;7.768;2022-08-11T16:11:40;10.47;;;3.87;;
5867;SDS011;2960;49.142;7.768;2022-08-11T16:14:11;10.40;;;3.63;;
5867;SDS011;2960;49.142;7.768;2022-08-11T16:16:59;10.33;;;3.73;;
5867;SDS011;2960;49.142;7.768;2022-08-11T16:19:28;10.90;;;3.80;;
5867;SDS011;2960;49.142;7.768;2022-08-11T16:21:59;10.40;;;3.70;;
5867;SDS011;2960;49.142;7.768;2022-08-11T16:24:31;10.47;;;3.97;;
5867;SDS011;2960;49.142;7.768;2022-08-11T16:27:00;10.83;;;3.97;;
5867;SDS011;2960;49.142;7.768;2022-08-11T16:29:31;10.60;;;3.73;;
5867;SDS011;2960;49.142;7.768;2022-08-11T16:32:02;10.80;;;4.13;;
5867;SDS011;2960;49.142;7.768;2022-08-11T16:34:43;10.60;;;3.90;;
5867;SDS011;2960;49.142;7.768;2022-08-11T16:37:35;10.40;;;3.50;;
5867;SDS011;2960;49.142;7.768;2022-08-11T16:40:20;10.30;;;3.60;;
5867;SDS011;2960;49.142;7.768;2022-08-11T16:42:48;10.73;;;3.40;;
5867;SDS011;2960;49.142;7.768;2022-08-11T16:45:36;10.27;;;3.50;;
5867;SDS011;2960;49.142;7.768;2022-08-11T16:48:25;10.60;;;3.83;;
5867;SDS011;2960;49.142;7.768;2022-08-11T16:50:56;11.73;;;3.97;;
5867;SDS011;2960;49.142;7.768;2022-08-11T16:53:25;10.80;;;3.73;;
5867;SDS011;2960;49.142;7.768;2022-08-11T16:55:54;10.43;;;3.90;;
5867;SDS011;2960;49.142;7.768;2022-08-11T16:58:24;11.27;;;4.10;;
5867;SDS011;2960;49.142;7.768;2022-08-11T17:01:12;10.60;;;4.03;;
5867;SDS011;2960;49.142;7.768;2022-08-11T17:03:44;10.30;;;3.40;;
5867;SDS011;2960;49.142;7.768;2022-08-11T17:06:35;10.37;;;3.87;;
5867;SDS011;2960;49.142;7.768;2022-08-11T17:09:26;11.40;;;4.00;;
5867;SDS011;2960;49.142;7.768;2022-08-11T17:12:15;10.33;;;3.50;;
5867;SDS011;2960;49.142;7.768;2022-08-11T17:15:05;10.70;;;3.90;;
5867;SDS011;2960;49.142;7.768;2022-08-11T17:18:01;10.80;;;4.10;;
5867;SDS011;2960;49.142;7.768;2022-08-11T17:20:33;11.23;;;4.10;;
5867;SDS011;2960;49.142;7.768;2022-08-11T17:23:02;11.00;;;4.13;;
5867;SDS011;2960;49.142;7.768;2022-08-11T17:25:49;10.50;;;4.10;;
5867;SDS011;2960;49.142;7.768;2022-08-11T17:28:17;19.33;;;4.30;;
5867;SDS011;2960;49.142;7.768;2022-08-11T17:30:48;10.63;;;4.00;;